Time;durP1;ratioP1;P1;durP2;ratioP2;P2;SDS_P1;SDS_P2;PMS_P1;PMS_P2;Temp;Humidity;BMP_temperature;BMP_pressure;BME280_temperature;BME280_humidity;BME280_pressure;Samples;Min_cycle;Max_cycle;Signal;HPM_P1;HPM_P2
2021/07/23 00:06:26;;;;;;;17.38;11.25;;;;;;;17.21;100.00;100632.13;713598;1202;115928;-75
2021/07/23 00:21:29;;;;;;;20.77;10.90;;;;;;;17.44;100.00;100629.55;713560;1205;115611;-74
2021/07/23 00:36:31;;;;;;;22.03;12.60;;;;;;;17.56;100.00;100627.34;713757;1202;115145;-74
2021/07/23 00:51:33;;;;;;;20.43;11.87;;;;;;;17.48;100.00;100629.22;713770;1203;115815;-74
2021/07/23 01:06:35;;;;;;;19.53;11.23;;;;;;;17.49;100.00;100617.63;713801;1201;115997;-74
2021/07/23 01:21:42;;;;;;;19.65;11.23;;;;;;;17.43;100.00;100617.30;713665;1202;114992;-74
2021/07/23 01:36:44;;;;;;;18.50;10.55;;;;;;;17.51;100.00;100615.61;713844;1200;115377;-74
2021/07/23 01:51:46;;;;;;;18.60;10.73;;;;;;;17.37;100.00;100611.87;713615;1203;115816;-73
2021/07/23 02:06:49;;;;;;;18.78;11.45;;;;;;;17.06;100.00;100594.88;713901;1178;115687;-75
2021/07/23 02:21:51;;;;;;;19.70;11.30;;;;;;;17.12;100.00;100594.20;713969;1203;114502;-74
2021/07/23 02:36:53;;;;;;;22.53;12.00;;;;;;;16.96;100.00;100583.67;713750;1200;116059;-74
2021/07/23 02:51:55;;;;;;;16.85;10.03;;;;;;;16.79;100.00;100593.44;713805;1177;114639;-74
2021/07/23 03:06:58;;;;;;;16.88;10.33;;;;;;;16.62;100.00;100585.50;713625;1200;115381;-74
2021/07/23 03:22:00;;;;;;;16.28;10.88;;;;;;;16.52;100.00;100592.80;713823;1200;115114;-74
2021/07/23 03:37:02;;;;;;;19.23;11.88;;;;;;;16.47;100.00;100588.02;713795;1204;115057;-73
2021/07/23 03:52:04;;;;;;;18.50;11.15;;;;;;;16.61;100.00;100575.90;713906;1203;115502;-74
2021/07/23 04:07:06;;;;;;;18.10;11.58;;;;;;;16.49;100.00;100585.19;713805;1202;114502;-76
2021/07/23 04:22:09;;;;;;;20.23;12.33;;;;;;;16.90;100.00;100592.28;713671;1202;115626;-75
2021/07/23 04:37:11;;;;;;;24.05;13.13;;;;;;;17.11;100.00;100573.98;714318;1206;114851;-74
2021/07/23 04:52:13;;;;;;;30.45;17.08;;;;;;;17.47;100.00;100577.98;713715;1202;116010;-81
2021/07/23 05:07:16;;;;;;;31.90;18.33;;;;;;;18.20;100.00;100572.41;713842;1205;115420;-74
2021/07/23 05:22:18;;;;;;;28.25;14.30;;;;;;;18.84;100.00;100552.56;713862;1177;114504;-74
2021/07/23 05:37:21;;;;;;;22.00;15.03;;;;;;;19.33;100.00;100575.11;713883;1202;115346;-74
2021/07/23 05:52:23;;;;;;;30.10;16.57;;;;;;;19.51;100.00;100585.36;714239;1202;115009;-74
2021/07/23 06:07:25;;;;;;;20.90;14.17;;;;;;;20.26;100.00;100583.28;713958;1202;114533;-74
2021/07/23 06:22:27;;;;;;;22.65;14.23;;;;;;;20.68;100.00;100586.89;713946;1201;114931;-81
2021/07/23 06:37:29;;;;;;;23.55;13.85;;;;;;;21.67;100.00;100584.12;714645;1194;115333;-81
2021/07/23 06:52:31;;;;;;;21.40;11.40;;;;;;;22.28;100.00;100580.52;714093;1200;115816;-77
2021/07/23 07:07:33;;;;;;;17.28;11.03;;;;;;;22.89;100.00;100583.97;713670;1202;115273;-78
2021/07/23 07:22:36;;;;;;;15.70;10.08;;;;;;;23.52;100.00;100588.71;713968;1202;115585;-70
2021/07/23 07:37:38;;;;;;;11.08;8.20;;;;;;;23.64;98.76;100588.86;713777;1205;115022;-70
2021/07/23 07:52:40;;;;;;;12.07;6.97;;;;;;;25.02;94.84;100580.97;714107;1202;115501;-72
2021/07/23 08:07:42;;;;;;;9.53;6.73;;;;;;;25.68;90.28;100575.82;714321;1200;114648;-72
2021/07/23 08:22:45;;;;;;;9.68;7.45;;;;;;;26.57;86.41;100579.59;714089;1203;114070;-74
2021/07/23 08:37:47;;;;;;;9.60;6.00;;;;;;;26.42;81.69;100582.73;713923;1206;115197;-77
2021/07/23 08:52:56;;;;;;;6.83;5.48;;;;;;;26.91;75.44;100579.83;713963;1206;114023;-75
2021/07/23 09:08:11;;;;;;;8.33;5.63;;;;;;;27.31;73.47;100576.31;714645;1202;114064;-76
2021/07/23 09:23:31;;;;;;;7.60;5.75;;;;;;;27.38;70.36;100566.27;714258;1203;113974;-77
2021/07/23 09:38:36;;;;;;;16.60;7.10;;;;;;;26.44;70.00;100579.84;713982;1202;114331;-75
2021/07/23 09:53:39;;;;;;;15.50;7.73;;;;;;;27.31;70.03;100565.54;713863;1193;114548;-75
2021/07/23 10:08:49;;;;;;;23.70;15.55;;;;;;;27.93;67.52;100561.28;713775;1177;114217;-78
2021/07/23 10:23:51;;;;;;;10.27;8.07;;;;;;;27.94;64.83;100554.84;713827;1202;114943;-77
2021/07/23 10:39:06;;;;;;;6.67;5.77;;;;;;;28.27;63.29;100531.65;713715;1202;115064;-77
2021/07/23 10:54:08;;;;;;;27.53;12.40;;;;;;;26.88;63.23;100532.68;713808;1205;115363;-74
2021/07/23 11:09:12;;;;;;;19.47;9.57;;;;;;;27.50;62.58;100516.89;714020;1202;114508;-75
2021/07/23 11:24:16;;;;;;;133.35;56.20;;;;;;;28.84;61.86;100494.64;713920;1202;115572;-75
2021/07/23 11:39:24;;;;;;;9.60;6.73;;;;;;;29.04;60.73;100473.25;714145;1194;115140;-75
2021/07/23 11:54:27;;;;;;;8.93;6.60;;;;;;;29.64;59.48;100472.48;713954;1202;114534;-75
2021/07/23 12:09:29;;;;;;;10.40;6.38;;;;;;;29.83;57.67;100459.39;714131;1206;113964;-79
2021/07/23 12:24:32;;;;;;;261.53;142.30;;;;;;;30.11;56.85;100455.53;713754;1202;115286;-77
2021/07/23 12:39:59;;;;;;;86.43;48.87;;;;;;;29.73;57.18;100457.41;713892;1200;115310;-77
2021/07/23 12:55:05;;;;;;;16.43;10.80;;;;;;;28.44;58.37;100431.81;714190;1200;114885;-77
2021/07/23 13:10:14;;;;;;;29.53;17.20;;;;;;;29.65;56.38;100428.17;713830;1202;115547;-76
2021/07/23 13:25:17;;;;;;;19.00;13.13;;;;;;;29.57;57.00;100432.16;713999;1202;114855;-76
2021/07/23 13:40:27;;;;;;;7.43;4.83;;;;;;;30.04;56.85;100434.13;714044;1176;114269;-76
2021/07/23 13:55:33;;;;;;;8.00;5.15;;;;;;;30.43;56.05;100419.42;713796;1202;114139;-74
2021/07/23 14:10:36;;;;;;;9.03;5.20;;;;;;;30.95;55.07;100422.30;713589;1202;114112;-75
2021/07/23 14:25:38;;;;;;;9.13;5.83;;;;;;;29.81;55.36;100416.38;713779;1200;115285;-76
2021/07/23 14:40:43;;;;;;;11.30;5.33;;;;;;;29.85;56.22;100408.56;713822;1202;114546;-75
2021/07/23 14:55:45;;;;;;;10.08;5.63;;;;;;;29.30;55.46;100400.63;713829;1200;114863;-75
2021/07/23 15:10:47;;;;;;;6.60;5.20;;;;;;;29.94;55.26;100395.41;713878;1203;114620;-82
2021/07/23 15:25:50;;;;;;;6.20;4.03;;;;;;;30.18;54.84;100393.09;714330;1201;114014;-81
2021/07/23 15:40:52;;;;;;;9.25;7.50;;;;;;;30.24;55.19;100377.72;713871;1202;114976;-78
2021/07/23 15:55:55;;;;;;;7.18;5.30;;;;;;;30.07;54.54;100383.31;713604;1202;114604;-85
2021/07/23 16:10:57;;;;;;;7.98;3.95;;;;;;;29.48;56.65;100371.58;713821;1200;114399;-74
2021/07/23 16:26:02;;;;;;;6.17;4.50;;;;;;;28.99;56.19;100361.70;714141;1200;115171;-77
2021/07/23 16:41:04;;;;;;;6.60;4.30;;;;;;;28.56;56.97;100364.23;713814;1205;114661;-75
2021/07/23 16:56:06;;;;;;;9.10;5.03;;;;;;;28.65;56.76;100365.45;713751;1191;114867;-74
2021/07/23 17:11:16;;;;;;;8.15;4.55;;;;;;;28.20;56.13;100363.80;713891;1202;115457;-74
2021/07/23 17:26:19;;;;;;;12.03;6.00;;;;;;;27.70;57.15;100360.98;713822;1177;114219;-75
2021/07/23 17:41:21;;;;;;;8.60;6.15;;;;;;;27.37;58.32;100356.39;713814;1203;114850;-79
2021/07/23 17:56:26;;;;;;;23.43;17.60;;;;;;;26.88;59.45;100362.31;714040;1177;114870;-80
2021/07/23 18:11:30;;;;;;;17.25;8.68;;;;;;;26.56;60.92;100368.16;714364;1200;115368;-78
2021/07/23 18:26:32;;;;;;;9.15;6.35;;;;;;;26.10;62.20;100375.30;713941;1202;114117;-74
2021/07/23 18:41:34;;;;;;;13.05;7.20;;;;;;;25.29;64.83;100381.19;714494;1177;114879;-75
2021/07/23 18:56:37;;;;;;;23.98;11.80;;;;;;;24.64;67.71;100406.84;714580;1201;115583;-74
2021/07/23 19:11:40;;;;;;;18.45;10.00;;;;;;;24.14;70.08;100415.82;715205;1177;114390;-79
2021/07/23 19:26:43;;;;;;;15.78;8.50;;;;;;;23.92;71.28;100426.97;713961;1205;115050;-81
2021/07/23 19:41:49;;;;;;;20.07;10.80;;;;;;;23.36;72.52;100434.80;714443;1203;114639;-80
2021/07/23 19:56:51;;;;;;;9.15;6.33;;;;;;;22.70;75.11;100439.44;714814;1203;115680;-79
2021/07/23 20:11:54;;;;;;;11.20;5.67;;;;;;;22.41;77.33;100456.80;714108;1203;114017;-81
2021/07/23 20:26:56;;;;;;;30.58;13.10;;;;;;;22.32;78.33;100461.51;714291;1205;114699;-79
2021/07/23 20:42:01;;;;;;;12.13;6.78;;;;;;;21.82;79.58;100469.16;713827;1202;115560;-78
2021/07/23 20:57:04;;;;;;;13.43;6.95;;;;;;;21.28;82.20;100466.38;714179;1202;114255;-75
2021/07/23 21:12:07;;;;;;;15.07;6.83;;;;;;;20.96;84.30;100476.74;714791;1203;115550;-76
2021/07/23 21:27:09;;;;;;;11.23;5.70;;;;;;;20.65;86.53;100493.98;714416;1202;115629;-76
2021/07/23 21:42:11;;;;;;;11.63;7.70;;;;;;;20.44;87.88;100493.05;714333;1202;114859;-76
2021/07/23 21:57:13;;;;;;;25.87;15.87;;;;;;;20.31;89.85;100503.63;713945;1205;114620;-78
2021/07/23 22:12:16;;;;;;;9.83;5.80;;;;;;;19.89;91.09;100508.00;713807;1176;114333;-76
2021/07/23 22:27:19;;;;;;;8.58;5.83;;;;;;;19.73;93.68;100506.36;713780;1205;113963;-78
2021/07/23 22:42:21;;;;;;;12.27;6.37;;;;;;;19.47;94.61;100497.12;713659;1202;114125;-77
2021/07/23 22:57:23;;;;;;;17.67;10.27;;;;;;;19.03;95.46;100506.85;713989;1178;114257;-76
2021/07/23 23:12:25;;;;;;;14.03;8.83;;;;;;;18.85;97.75;100501.06;713682;1177;114478;-77
2021/07/23 23:27:28;;;;;;;14.07;8.47;;;;;;;18.57;99.72;100499.06;713692;1200;115313;-74
2021/07/23 23:42:31;;;;;;;21.73;12.43;;;;;;;18.27;100.00;100496.36;713582;1202;114648;-74
2021/07/23 23:57:33;;;;;;;18.75;13.80;;;;;;;18.02;100.00;100491.27;713692;1181;116051;-74
